Tropical Cyclones
[Index]
Main Index Home Page Stock Weather Photos Extreme Storms Discussion Storm News and Storm Chasing Reports Tropical Cyclones / Hurricanes / Typhoons Weather Data and Links Wild Fires / Bushfires Weather Observation Techniques Weather Picture Catalogue Tornado Pictures and Reports Stock Video Footage and DVDs for sale
Season 1984-1985 Tropical Cyclone SANDY Track Map
Season 1984-1985 Summaries: [BoM-AU] [JTWC-AU] [JTWC-SIO] [JTWC-SPAC] [JTWC-SH]
<<- Previous TC | BoM 1984-1985 Season | Next TC ->>

click for intensity scale information  Lat/long Grid: Show Hide

 Date Labels: Show Hide

Bureau of Meteorology Tropical Cyclone Data

Name: SANDY
Number: 676 / 198485_14

20 Mar 1985 00:00 UTC to 26 Mar 1985 00:00 UTC

    date/time    lat    long    hPa   cat  kts
1985-03-20 00   13.9   139.5   1000         25          
1985-03-20 06   13.9   139.7    998         30          
1985-03-20 12   13.7   139.0    995    1    35          
1985-03-20 18   13.4   138.2    992    1    40          
1985-03-21 00   13.6   138.5    988    1    50          
1985-03-21 06   13.6   138.9    982    2    55          
1985-03-21 12   13.5   139.0    975    2    60          
1985-03-21 18   13.4   138.8    968    3    80          
1985-03-22 00   13.5   138.6    960    3    85          
1985-03-22 06   13.7   138.6    957    3    85          
1985-03-22 12   14.0   138.8    953    4    95          
1985-03-22 18   14.5   138.7    953    4    105          
1985-03-23 00   14.9   138.6    953    4    105          
1985-03-23 06   15.2   138.4    956    3    100          
1985-03-23 12   15.7   137.8    960    3    95          
1985-03-23 18   15.6   137.3    960    3    95          
1985-03-24 00   15.3   136.8    960    3    95          
1985-03-24 06   15.3   136.2    965    3    90          
1985-03-24 12   14.9   135.5    970    3    75          
1985-03-24 18   14.5   135.1    980    2    60          
1985-03-25 00   14.5   134.9    990    1    40          
1985-03-25 06   14.5   134.5    995    1    30          
1985-03-25 12   14.4   134.2    996         30          
1985-03-25 18   14.4   134.0    998         25          
1985-03-26 00   14.4   133.7    998         25          
Winds are 10-min average.

Tropical cyclone tracks developed by Michael Bath using data from the Bureau of Meteorology and Google Maps.


[Australian Severe Weather index] [Copyright Notice] [Email Contacts] [Search This Site] [Privacy Policy]
Document: tropical_cyclone_sandy.htm Updated: 4 April 2018